sensor_id;sensor_type;location;lat;lon;timestamp;pressure;altitude;pressure_sealevel;temperature;humidity
48926;BME280;39838;59.938;30.642;2023-01-28T00:02:16;101641.28;;;-2.56;75.00
48926;BME280;39838;59.938;30.642;2023-01-28T00:04:43;101638.75;;;-2.56;74.70
48926;BME280;39838;59.938;30.642;2023-01-28T00:07:10;101643.84;;;-2.56;74.80
48926;BME280;39838;59.938;30.642;2023-01-28T00:09:39;101642.28;;;-2.54;74.69
48926;BME280;39838;59.938;30.642;2023-01-28T00:12:06;101646.16;;;-2.59;74.65
48926;BME280;39838;59.938;30.642;2023-01-28T00:14:33;101640.19;;;-2.71;74.68
48926;BME280;39838;59.938;30.642;2023-01-28T00:17:00;101642.88;;;-2.82;74.53
48926;BME280;39838;59.938;30.642;2023-01-28T00:19:27;101638.31;;;-2.86;74.91
48926;BME280;39838;59.938;30.642;2023-01-28T00:21:54;101616.22;;;-2.98;75.18
48926;BME280;39838;59.938;30.642;2023-01-28T00:24:22;101636.56;;;-2.87;74.90
48926;BME280;39838;59.938;30.642;2023-01-28T00:26:50;101633.56;;;-2.93;74.91
48926;BME280;39838;59.938;30.642;2023-01-28T00:29:17;101630.25;;;-2.92;74.99
48926;BME280;39838;59.938;30.642;2023-01-28T00:31:44;101624.84;;;-2.96;75.04
48926;BME280;39838;59.938;30.642;2023-01-28T00:34:11;101628.72;;;-2.90;74.98
48926;BME280;39838;59.938;30.642;2023-01-28T00:36:38;101632.25;;;-2.88;75.26
48926;BME280;39838;59.938;30.642;2023-01-28T00:39:10;101626.28;;;-2.88;74.95
48926;BME280;39838;59.938;30.642;2023-01-28T00:41:39;101617.44;;;-2.82;75.38
48926;BME280;39838;59.938;30.642;2023-01-28T00:44:08;101610.25;;;-2.76;75.47
48926;BME280;39838;59.938;30.642;2023-01-28T00:46:36;101615.75;;;-2.69;75.28
48926;BME280;39838;59.938;30.642;2023-01-28T00:49:03;101616.19;;;-2.63;75.18
48926;BME280;39838;59.938;30.642;2023-01-28T00:51:31;101621.50;;;-2.60;75.24
48926;BME280;39838;59.938;30.642;2023-01-28T00:53:58;101607.09;;;-2.60;75.08
48926;BME280;39838;59.938;30.642;2023-01-28T00:56:25;101606.91;;;-2.63;74.83
48926;BME280;39838;59.938;30.642;2023-01-28T00:58:52;101598.50;;;-2.62;74.83
48926;BME280;39838;59.938;30.642;2023-01-28T01:01:22;101597.59;;;-2.62;74.74
48926;BME280;39838;59.938;30.642;2023-01-28T01:03:50;101599.13;;;-2.64;74.75
48926;BME280;39838;59.938;30.642;2023-01-28T01:06:23;101606.91;;;-2.63;74.44
48926;BME280;39838;59.938;30.642;2023-01-28T01:08:50;101596.50;;;-2.66;74.54
48926;BME280;39838;59.938;30.642;2023-01-28T01:11:17;101591.31;;;-2.67;74.49
48926;BME280;39838;59.938;30.642;2023-01-28T01:13:49;101587.25;;;-2.77;74.62
48926;BME280;39838;59.938;30.642;2023-01-28T01:16:16;101585.34;;;-2.80;74.57
48926;BME280;39838;59.938;30.642;2023-01-28T01:18:44;101588.22;;;-2.87;74.59
48926;BME280;39838;59.938;30.642;2023-01-28T01:21:33;101596.53;;;-2.89;74.55
48926;BME280;39838;59.938;30.642;2023-01-28T01:24:00;101589.69;;;-2.90;74.55
48926;BME280;39838;59.938;30.642;2023-01-28T01:26:27;101585.50;;;-2.90;74.30
48926;BME280;39838;59.938;30.642;2023-01-28T01:28:55;101570.00;;;-2.93;74.36
48926;BME280;39838;59.938;30.642;2023-01-28T01:31:22;101584.38;;;-2.93;74.09
48926;BME280;39838;59.938;30.642;2023-01-28T01:33:51;101577.97;;;-3.00;74.18
48926;BME280;39838;59.938;30.642;2023-01-28T01:36:18;101582.59;;;-3.06;74.58
48926;BME280;39838;59.938;30.642;2023-01-28T01:38:46;101581.81;;;-3.05;74.49
48926;BME280;39838;59.938;30.642;2023-01-28T01:41:22;101577.53;;;-3.06;74.67
48926;BME280;39838;59.938;30.642;2023-01-28T01:44:01;101587.25;;;-3.12;74.59
48926;BME280;39838;59.938;30.642;2023-01-28T01:46:36;101578.53;;;-3.27;74.65
48926;BME280;39838;59.938;30.642;2023-01-28T01:49:13;101577.00;;;-3.37;74.91
48926;BME280;39838;59.938;30.642;2023-01-28T01:51:44;101578.66;;;-3.38;74.75
48926;BME280;39838;59.938;30.642;2023-01-28T01:54:14;101565.59;;;-3.42;74.91
48926;BME280;39838;59.938;30.642;2023-01-28T01:56:42;101563.16;;;-3.41;75.31
48926;BME280;39838;59.938;30.642;2023-01-28T01:59:14;101533.13;;;-3.58;75.00
48926;BME280;39838;59.938;30.642;2023-01-28T02:01:44;101566.59;;;-3.40;74.69
48926;BME280;39838;59.938;30.642;2023-01-28T02:04:17;101566.59;;;-3.40;74.83
48926;BME280;39838;59.938;30.642;2023-01-28T02:06:46;101550.59;;;-3.51;75.18
48926;BME280;39838;59.938;30.642;2023-01-28T02:09:22;101558.84;;;-3.53;75.14
48926;BME280;39838;59.938;30.642;2023-01-28T02:11:52;101530.22;;;-3.74;75.07
48926;BME280;39838;59.938;30.642;2023-01-28T02:14:20;101548.78;;;-3.64;75.50
48926;BME280;39838;59.938;30.642;2023-01-28T02:17:09;101551.34;;;-3.64;75.56
48926;BME280;39838;59.938;30.642;2023-01-28T02:19:41;101536.09;;;-3.64;75.58
48926;BME280;39838;59.938;30.642;2023-01-28T02:22:31;101550.03;;;-3.59;75.37
48926;BME280;39838;59.938;30.642;2023-01-28T02:28:31;101545.94;;;-3.57;75.51
48926;BME280;39838;59.938;30.642;2023-01-28T02:31:05;101541.50;;;-3.59;75.26
48926;BME280;39838;59.938;30.642;2023-01-28T02:33:39;101555.22;;;-3.57;75.19
48926;BME280;39838;59.938;30.642;2023-01-28T02:36:15;101538.94;;;-3.59;74.71
48926;BME280;39838;59.938;30.642;2023-01-28T02:38:46;101546.34;;;-3.62;74.92
48926;BME280;39838;59.938;30.642;2023-01-28T02:41:21;101539.94;;;-3.69;74.97
48926;BME280;39838;59.938;30.642;2023-01-28T02:43:51;101541.94;;;-3.76;75.16
48926;BME280;39838;59.938;30.642;2023-01-28T02:46:21;101518.94;;;-3.90;75.35
48926;BME280;39838;59.938;30.642;2023-01-28T02:49:09;101544.22;;;-3.79;74.98
48926;BME280;39838;59.938;30.642;2023-01-28T02:51:52;101546.13;;;-3.77;75.39
48926;BME280;39838;59.938;30.642;2023-01-28T02:54:33;101537.50;;;-3.91;75.72
48926;BME280;39838;59.938;30.642;2023-01-28T02:57:08;101533.97;;;-3.81;75.72
48926;BME280;39838;59.938;30.642;2023-01-28T02:59:43;101527.13;;;-3.82;75.69
48926;BME280;39838;59.938;30.642;2023-01-28T03:02:20;101528.44;;;-3.87;75.21
48926;BME280;39838;59.938;30.642;2023-01-28T03:04:50;101525.88;;;-3.99;75.81
48926;BME280;39838;59.938;30.642;2023-01-28T03:07:21;101526.84;;;-4.08;75.37
48926;BME280;39838;59.938;30.642;2023-01-28T03:09:53;101531.59;;;-4.01;75.81
48926;BME280;39838;59.938;30.642;2023-01-28T03:12:25;101505.91;;;-4.06;75.59
48926;BME280;39838;59.938;30.642;2023-01-28T03:15:15;101530.00;;;-3.77;75.82
48926;BME280;39838;59.938;30.642;2023-01-28T03:18:03;101530.78;;;-3.78;75.53
48926;BME280;39838;59.938;30.642;2023-01-28T03:20:50;101534.84;;;-3.92;75.44
48926;BME280;39838;59.938;30.642;2023-01-28T03:23:41;101527.34;;;-3.91;75.60
48926;BME280;39838;59.938;30.642;2023-01-28T03:26:30;101535.16;;;-3.88;75.46
48926;BME280;39838;59.938;30.642;2023-01-28T03:29:19;101524.44;;;-3.95;75.66
48926;BME280;39838;59.938;30.642;2023-01-28T03:32:07;101528.88;;;-3.93;75.14
48926;BME280;39838;59.938;30.642;2023-01-28T03:34:52;101525.53;;;-4.03;75.17
48926;BME280;39838;59.938;30.642;2023-01-28T03:37:37;101524.41;;;-4.07;75.80
48926;BME280;39838;59.938;30.642;2023-01-28T03:40:06;101515.25;;;-4.17;75.74
48926;BME280;39838;59.938;30.642;2023-01-28T03:42:33;101523.53;;;-4.19;75.88
48926;BME280;39838;59.938;30.642;2023-01-28T03:45:01;101518.09;;;-4.24;76.15
48926;BME280;39838;59.938;30.642;2023-01-28T03:47:31;101516.00;;;-4.18;76.45
48926;BME280;39838;59.938;30.642;2023-01-28T03:49:59;101510.72;;;-4.09;76.49
48926;BME280;39838;59.938;30.642;2023-01-28T03:52:28;101505.59;;;-3.99;76.24
48926;BME280;39838;59.938;30.642;2023-01-28T03:54:56;101510.75;;;-3.97;76.04
48926;BME280;39838;59.938;30.642;2023-01-28T03:57:26;101481.81;;;-4.11;76.27
48926;BME280;39838;59.938;30.642;2023-01-28T03:59:55;101494.09;;;-3.94;76.04
48926;BME280;39838;59.938;30.642;2023-01-28T04:02:23;101485.47;;;-3.96;76.22
48926;BME280;39838;59.938;30.642;2023-01-28T04:04:53;101481.72;;;-4.01;75.78
48926;BME280;39838;59.938;30.642;2023-01-28T04:07:20;101479.75;;;-4.05;76.38
48926;BME280;39838;59.938;30.642;2023-01-28T04:09:47;101488.56;;;-4.00;76.42
48926;BME280;39838;59.938;30.642;2023-01-28T04:12:14;101483.72;;;-3.97;76.26
48926;BME280;39838;59.938;30.642;2023-01-28T04:14:43;101469.38;;;-3.96;75.91
48926;BME280;39838;59.938;30.642;2023-01-28T04:17:10;101464.97;;;-3.99;76.00
48926;BME280;39838;59.938;30.642;2023-01-28T04:19:37;101475.44;;;-4.06;76.11
48926;BME280;39838;59.938;30.642;2023-01-28T04:22:09;101471.34;;;-4.04;76.44
48926;BME280;39838;59.938;30.642;2023-01-28T04:24:36;101472.78;;;-3.96;76.28
48926;BME280;39838;59.938;30.642;2023-01-28T04:27:03;101470.59;;;-3.91;76.19
48926;BME280;39838;59.938;30.642;2023-01-28T04:29:31;101472.56;;;-3.99;75.70
48926;BME280;39838;59.938;30.642;2023-01-28T04:31:58;101470.03;;;-3.99;75.66
48926;BME280;39838;59.938;30.642;2023-01-28T04:34:25;101472.13;;;-3.93;76.07
48926;BME280;39838;59.938;30.642;2023-01-28T04:36:52;101469.47;;;-3.95;75.72
48926;BME280;39838;59.938;30.642;2023-01-28T04:39:21;101476.88;;;-3.98;75.62
48926;BME280;39838;59.938;30.642;2023-01-28T04:41:48;101473.13;;;-3.91;75.65
48926;BME280;39838;59.938;30.642;2023-01-28T04:44:15;101469.91;;;-3.89;76.13
48926;BME280;39838;59.938;30.642;2023-01-28T04:46:42;101470.38;;;-3.82;76.09
48926;BME280;39838;59.938;30.642;2023-01-28T04:49:09;101465.75;;;-3.76;76.11
48926;BME280;39838;59.938;30.642;2023-01-28T04:51:36;101472.38;;;-3.78;75.58
48926;BME280;39838;59.938;30.642;2023-01-28T04:54:03;101463.75;;;-3.80;76.07
48926;BME280;39838;59.938;30.642;2023-01-28T04:56:32;101446.97;;;-3.78;75.79
48926;BME280;39838;59.938;30.642;2023-01-28T04:58:59;101448.28;;;-3.83;75.94
48926;BME280;39838;59.938;30.642;2023-01-28T05:01:27;101453.03;;;-3.88;75.63
48926;BME280;39838;59.938;30.642;2023-01-28T05:03:54;101459.66;;;-3.90;75.71
48926;BME280;39838;59.938;30.642;2023-01-28T05:06:21;101443.88;;;-3.98;76.09
48926;BME280;39838;59.938;30.642;2023-01-28T05:08:48;101450.91;;;-3.94;75.79
48926;BME280;39838;59.938;30.642;2023-01-28T05:11:16;101449.06;;;-3.96;75.91
48926;BME280;39838;59.938;30.642;2023-01-28T05:13:44;101452.72;;;-3.93;76.22
48926;BME280;39838;59.938;30.642;2023-01-28T05:16:11;101442.78;;;-3.90;76.02
48926;BME280;39838;59.938;30.642;2023-01-28T05:18:38;101446.19;;;-3.89;75.92
48926;BME280;39838;59.938;30.642;2023-01-28T05:21:05;101442.31;;;-3.96;75.95
48926;BME280;39838;59.938;30.642;2023-01-28T05:23:33;101436.59;;;-4.05;76.14
48926;BME280;39838;59.938;30.642;2023-01-28T05:26:00;101425.31;;;-4.08;76.42
48926;BME280;39838;59.938;30.642;2023-01-28T05:28:27;101415.81;;;-4.11;76.16
48926;BME280;39838;59.938;30.642;2023-01-28T05:30:56;101409.41;;;-4.18;76.61
48926;BME280;39838;59.938;30.642;2023-01-28T05:33:23;101410.31;;;-4.17;76.43
48926;BME280;39838;59.938;30.642;2023-01-28T05:35:50;101409.41;;;-4.18;76.55
48926;BME280;39838;59.938;30.642;2023-01-28T05:38:17;101408.53;;;-4.18;76.66
48926;BME280;39838;59.938;30.642;2023-01-28T05:40:46;101410.84;;;-4.21;76.58
48926;BME280;39838;59.938;30.642;2023-01-28T05:43:13;101411.72;;;-4.21;76.58
48926;BME280;39838;59.938;30.642;2023-01-28T05:45:40;101411.06;;;-4.18;76.71
48926;BME280;39838;59.938;30.642;2023-01-28T05:48:09;101409.84;;;-4.23;76.98
48926;BME280;39838;59.938;30.642;2023-01-28T05:50:36;101404.78;;;-4.23;76.42
48926;BME280;39838;59.938;30.642;2023-01-28T05:53:04;101401.25;;;-4.25;76.48
48926;BME280;39838;59.938;30.642;2023-01-28T05:55:31;101411.72;;;-4.21;75.99
48926;BME280;39838;59.938;30.642;2023-01-28T05:57:58;101426.16;;;-4.31;75.28
48926;BME280;39838;59.938;30.642;2023-01-28T06:00:26;101418.19;;;-4.48;76.18
48926;BME280;39838;59.938;30.642;2023-01-28T06:02:53;101428.09;;;-4.51;75.94
48926;BME280;39838;59.938;30.642;2023-01-28T06:05:21;101425.78;;;-4.59;76.04
48926;BME280;39838;59.938;30.642;2023-01-28T06:07:49;101387.34;;;-4.76;76.62
48926;BME280;39838;59.938;30.642;2023-01-28T06:10:17;101410.19;;;-4.64;76.47
48926;BME280;39838;59.938;30.642;2023-01-28T06:12:44;101402.13;;;-4.70;77.03
48926;BME280;39838;59.938;30.642;2023-01-28T06:15:11;101418.81;;;-4.62;76.78
48926;BME280;39838;59.938;30.642;2023-01-28T06:17:39;101417.41;;;-4.58;77.19
48926;BME280;39838;59.938;30.642;2023-01-28T06:20:07;101417.66;;;-4.44;76.85
48926;BME280;39838;59.938;30.642;2023-01-28T06:22:35;101421.72;;;-4.34;77.15
48926;BME280;39838;59.938;30.642;2023-01-28T06:25:03;101411.06;;;-4.30;77.10
48926;BME280;39838;59.938;30.642;2023-01-28T06:27:30;101406.50;;;-4.34;76.51
48926;BME280;39838;59.938;30.642;2023-01-28T06:29:57;101407.19;;;-4.36;76.64
48926;BME280;39838;59.938;30.642;2023-01-28T06:32:24;101418.22;;;-4.36;76.43
48926;BME280;39838;59.938;30.642;2023-01-28T06:34:51;101409.72;;;-4.36;76.87
48926;BME280;39838;59.938;30.642;2023-01-28T06:37:19;101415.88;;;-4.45;76.70
48926;BME280;39838;59.938;30.642;2023-01-28T06:39:47;101415.88;;;-4.45;76.57
48926;BME280;39838;59.938;30.642;2023-01-28T06:42:14;101407.28;;;-4.47;76.70
48926;BME280;39838;59.938;30.642;2023-01-28T06:44:41;101408.03;;;-4.48;76.89
48926;BME280;39838;59.938;30.642;2023-01-28T06:47:08;101416.19;;;-4.52;76.93
48926;BME280;39838;59.938;30.642;2023-01-28T06:49:36;101414.28;;;-4.54;77.17
48926;BME280;39838;59.938;30.642;2023-01-28T06:52:03;101413.41;;;-4.55;77.70
48926;BME280;39838;59.938;30.642;2023-01-28T06:54:30;101403.41;;;-4.53;77.73
48926;BME280;39838;59.938;30.642;2023-01-28T06:56:59;101398.97;;;-4.56;77.35
48926;BME280;39838;59.938;30.642;2023-01-28T06:59:26;101406.69;;;-4.54;77.93
48926;BME280;39838;59.938;30.642;2023-01-28T07:01:53;101400.06;;;-4.64;77.66
48926;BME280;39838;59.938;30.642;2023-01-28T07:04:20;101400.53;;;-4.58;77.95
48926;BME280;39838;59.938;30.642;2023-01-28T07:06:47;101385.84;;;-4.62;78.00
48926;BME280;39838;59.938;30.642;2023-01-28T07:09:14;101395.88;;;-4.63;78.01
48926;BME280;39838;59.938;30.642;2023-01-28T07:11:42;101385.06;;;-4.61;78.03
48926;BME280;39838;59.938;30.642;2023-01-28T07:14:10;101393.69;;;-4.59;77.84
48926;BME280;39838;59.938;30.642;2023-01-28T07:16:37;101381.00;;;-4.59;78.03
48926;BME280;39838;59.938;30.642;2023-01-28T07:19:04;101389.94;;;-4.52;77.70
48926;BME280;39838;59.938;30.642;2023-01-28T07:21:31;101382.81;;;-4.46;77.93
48926;BME280;39838;59.938;30.642;2023-01-28T07:23:58;101375.50;;;-4.42;77.51
48926;BME280;39838;59.938;30.642;2023-01-28T07:26:25;101366.13;;;-4.43;77.73
48926;BME280;39838;59.938;30.642;2023-01-28T07:28:52;101363.84;;;-4.40;77.91
48926;BME280;39838;59.938;30.642;2023-01-28T07:31:21;101367.47;;;-4.36;77.76
48926;BME280;39838;59.938;30.642;2023-01-28T07:33:50;101359.63;;;-4.27;77.46
48926;BME280;39838;59.938;30.642;2023-01-28T07:36:17;101352.25;;;-4.24;77.35
48926;BME280;39838;59.938;30.642;2023-01-28T07:38:46;101350.16;;;-4.18;77.15
48926;BME280;39838;59.938;30.642;2023-01-28T07:41:13;101358.09;;;-4.14;77.66
48926;BME280;39838;59.938;30.642;2023-01-28T07:43:40;101353.34;;;-4.09;76.74
48926;BME280;39838;59.938;30.642;2023-01-28T07:46:08;101352.28;;;-4.13;76.93
48926;BME280;39838;59.938;30.642;2023-01-28T07:48:36;101343.78;;;-4.13;76.78
48926;BME280;39838;59.938;30.642;2023-01-28T07:51:03;101341.00;;;-4.16;76.69
48926;BME280;39838;59.938;30.642;2023-01-28T07:53:31;101341.88;;;-4.16;77.02
48926;BME280;39838;59.938;30.642;2023-01-28T07:55:59;101343.34;;;-4.19;77.06
48926;BME280;39838;59.938;30.642;2023-01-28T07:58:26;101338.78;;;-4.23;77.13
48926;BME280;39838;59.938;30.642;2023-01-28T08:00:55;101342.47;;;-4.20;77.27
48926;BME280;39838;59.938;30.642;2023-01-28T08:03:23;101335.72;;;-4.19;77.29
48926;BME280;39838;59.938;30.642;2023-01-28T08:05:53;101334.06;;;-4.19;77.23
48926;BME280;39838;59.938;30.642;2023-01-28T08:08:21;101341.25;;;-4.13;76.94
48926;BME280;39838;59.938;30.642;2023-01-28T08:10:49;101338.81;;;-4.12;77.00
48926;BME280;39838;59.938;30.642;2023-01-28T08:13:17;101341.78;;;-4.17;77.30
48926;BME280;39838;59.938;30.642;2023-01-28T08:15:45;101326.00;;;-4.13;77.09
48926;BME280;39838;59.938;30.642;2023-01-28T08:18:13;101334.59;;;-4.11;77.05
48926;BME280;39838;59.938;30.642;2023-01-28T08:20:43;101320.38;;;-4.09;77.11
48926;BME280;39838;59.938;30.642;2023-01-28T08:23:14;101307.78;;;-4.07;76.98
48926;BME280;39838;59.938;30.642;2023-01-28T08:25:41;101318.25;;;-4.03;76.62
48926;BME280;39838;59.938;30.642;2023-01-28T08:28:09;101316.06;;;-3.98;76.70
48926;BME280;39838;59.938;30.642;2023-01-28T08:30:37;101300.41;;;-4.04;76.52
48926;BME280;39838;59.938;30.642;2023-01-28T08:33:05;101308.97;;;-3.91;76.34
48926;BME280;39838;59.938;30.642;2023-01-28T08:35:32;101305.47;;;-3.93;76.24
48926;BME280;39838;59.938;30.642;2023-01-28T08:38:00;101303.47;;;-3.97;76.30
48926;BME280;39838;59.938;30.642;2023-01-28T08:40:29;101288.34;;;-4.07;76.07
48926;BME280;39838;59.938;30.642;2023-01-28T08:42:57;101282.38;;;-4.07;76.41
48926;BME280;39838;59.938;30.642;2023-01-28T08:45:25;101271.94;;;-4.12;76.03
48926;BME280;39838;59.938;30.642;2023-01-28T08:47:55;101235.31;;;-4.27;76.45
48926;BME280;39838;59.938;30.642;2023-01-28T08:50:23;101268.47;;;-4.01;76.50
48926;BME280;39838;59.938;30.642;2023-01-28T08:52:54;101266.16;;;-3.98;76.47
48926;BME280;39838;59.938;30.642;2023-01-28T08:55:21;101265.28;;;-3.98;76.07
48926;BME280;39838;59.938;30.642;2023-01-28T08:57:50;101259.53;;;-3.96;76.50
48926;BME280;39838;59.938;30.642;2023-01-28T09:00:18;101268.25;;;-3.92;76.53
48926;BME280;39838;59.938;30.642;2023-01-28T09:02:46;101251.38;;;-3.92;76.43
48926;BME280;39838;59.938;30.642;2023-01-28T09:05:13;101258.19;;;-3.79;76.55
48926;BME280;39838;59.938;30.642;2023-01-28T09:07:40;101254.28;;;-3.74;76.19
48926;BME280;39838;59.938;30.642;2023-01-28T09:10:08;101242.78;;;-3.69;76.13
48926;BME280;39838;59.938;30.642;2023-01-28T09:12:36;101253.03;;;-3.67;76.27
48926;BME280;39838;59.938;30.642;2023-01-28T09:15:06;101249.72;;;-3.66;76.08
48926;BME280;39838;59.938;30.642;2023-01-28T09:17:33;101251.44;;;-3.53;76.49
48926;BME280;39838;59.938;30.642;2023-01-28T09:20:00;101248.53;;;-3.46;75.79
48926;BME280;39838;59.938;30.642;2023-01-28T09:22:29;101237.25;;;-3.38;75.46
48926;BME280;39838;59.938;30.642;2023-01-28T09:24:56;101227.75;;;-3.41;75.75
48926;BME280;39838;59.938;30.642;2023-01-28T09:27:23;101239.63;;;-3.28;75.44
48926;BME280;39838;59.938;30.642;2023-01-28T09:29:50;101239.63;;;-3.28;75.28
48926;BME280;39838;59.938;30.642;2023-01-28T09:32:19;101234.53;;;-3.28;74.94
48926;BME280;39838;59.938;30.642;2023-01-28T09:34:48;101232.00;;;-3.28;75.08
48926;BME280;39838;59.938;30.642;2023-01-28T09:37:15;101227.88;;;-3.26;75.40
48926;BME280;39838;59.938;30.642;2023-01-28T09:39:43;101217.63;;;-3.27;75.20
48926;BME280;39838;59.938;30.642;2023-01-28T09:42:33;101220.25;;;-3.26;75.18
48926;BME280;39838;59.938;30.642;2023-01-28T09:45:11;101215.09;;;-3.27;74.92
48926;BME280;39838;59.938;30.642;2023-01-28T09:47:43;101167.94;;;-3.49;74.95
48926;BME280;39838;59.938;30.642;2023-01-28T09:50:16;101200.34;;;-3.20;74.90
48926;BME280;39838;59.938;30.642;2023-01-28T09:52:44;101210.50;;;-3.20;74.49
48926;BME280;39838;59.938;30.642;2023-01-28T09:55:17;101201.41;;;-3.30;74.30
48926;BME280;39838;59.938;30.642;2023-01-28T09:57:50;101200.31;;;-3.33;74.67
48926;BME280;39838;59.938;30.642;2023-01-28T10:00:21;101176.75;;;-3.44;74.91
48926;BME280;39838;59.938;30.642;2023-01-28T10:02:58;101181.88;;;-3.55;74.45
48926;BME280;39838;59.938;30.642;2023-01-28T10:05:32;101182.25;;;-3.63;74.86
48926;BME280;39838;59.938;30.642;2023-01-28T10:08:12;101183.91;;;-3.63;74.93
48926;BME280;39838;59.938;30.642;2023-01-28T10:10:47;101179.50;;;-3.66;74.30
48926;BME280;39838;59.938;30.642;2023-01-28T10:13:22;101168.25;;;-3.69;74.62
48926;BME280;39838;59.938;30.642;2023-01-28T10:16:05;101162.97;;;-3.72;74.45
48926;BME280;39838;59.938;30.642;2023-01-28T10:18:41;101153.47;;;-3.75;74.68
48926;BME280;39838;59.938;30.642;2023-01-28T10:21:14;101158.28;;;-3.66;75.10
48926;BME280;39838;59.938;30.642;2023-01-28T10:23:48;101153.34;;;-3.65;74.42
48926;BME280;39838;59.938;30.642;2023-01-28T10:26:22;101148.81;;;-3.69;74.87
48926;BME280;39838;59.938;30.642;2023-01-28T10:28:53;101153.63;;;-3.60;74.59
48926;BME280;39838;59.938;30.642;2023-01-28T10:31:22;101134.19;;;-3.60;74.43
48926;BME280;39838;59.938;30.642;2023-01-28T10:33:54;101138.38;;;-3.60;74.60
48926;BME280;39838;59.938;30.642;2023-01-28T10:36:22;101127.97;;;-3.51;74.56
48926;BME280;39838;59.938;30.642;2023-01-28T10:38:50;101131.09;;;-3.42;74.20
48926;BME280;39838;59.938;30.642;2023-01-28T10:41:20;101120.25;;;-3.40;73.99
48926;BME280;39838;59.938;30.642;2023-01-28T10:43:48;101115.16;;;-3.40;74.17
48926;BME280;39838;59.938;30.642;2023-01-28T10:46:18;101117.22;;;-3.34;73.72
48926;BME280;39838;59.938;30.642;2023-01-28T10:48:55;101114.03;;;-3.32;73.69
48926;BME280;39838;59.938;30.642;2023-01-28T10:51:31;101112.16;;;-3.34;73.51
48926;BME280;39838;59.938;30.642;2023-01-28T10:53:59;101120.88;;;-3.31;73.53
48926;BME280;39838;59.938;30.642;2023-01-28T10:56:28;101118.34;;;-3.31;73.39
48926;BME280;39838;59.938;30.642;2023-01-28T10:59:01;101112.84;;;-3.37;73.49
48926;BME280;39838;59.938;30.642;2023-01-28T11:01:40;101115.47;;;-3.35;73.45
48926;BME280;39838;59.938;30.642;2023-01-28T11:04:17;101104.81;;;-3.43;73.74
48926;BME280;39838;59.938;30.642;2023-01-28T11:06:52;101108.66;;;-3.36;73.77
48926;BME280;39838;59.938;30.642;2023-01-28T11:09:21;101097.88;;;-3.32;73.53
48926;BME280;39838;59.938;30.642;2023-01-28T11:11:49;101100.16;;;-3.23;73.38
48926;BME280;39838;59.938;30.642;2023-01-28T11:14:24;101071.41;;;-3.36;73.62
48926;BME280;39838;59.938;30.642;2023-01-28T11:16:53;101097.88;;;-3.19;73.24
48926;BME280;39838;59.938;30.642;2023-01-28T11:19:28;101082.84;;;-3.16;73.57
48926;BME280;39838;59.938;30.642;2023-01-28T11:21:57;101082.16;;;-3.13;73.21
48926;BME280;39838;59.938;30.642;2023-01-28T11:24:26;101080.31;;;-3.16;72.96
48926;BME280;39838;59.938;30.642;2023-01-28T11:26:56;101052.13;;;-3.32;72.94
48926;BME280;39838;59.938;30.642;2023-01-28T11:29:30;101072.00;;;-3.13;72.83
48926;BME280;39838;59.938;30.642;2023-01-28T11:31:58;101060.94;;;-3.14;72.94
48926;BME280;39838;59.938;30.642;2023-01-28T11:34:29;101047.56;;;-3.24;72.83
48926;BME280;39838;59.938;30.642;2023-01-28T11:37:01;101051.56;;;-3.28;73.06
48926;BME280;39838;59.938;30.642;2023-01-28T11:39:30;101047.34;;;-3.27;72.53
48926;BME280;39838;59.938;30.642;2023-01-28T11:42:11;101041.88;;;-3.34;72.86
48926;BME280;39838;59.938;30.642;2023-01-28T11:44:41;101036.72;;;-3.35;73.07
48926;BME280;39838;59.938;30.642;2023-01-28T11:47:32;101020.00;;;-3.32;73.41
48926;BME280;39838;59.938;30.642;2023-01-28T11:50:31;101023.44;;;-3.31;73.01
48926;BME280;39838;59.938;30.642;2023-01-28T11:56:16;101008.66;;;-3.23;72.82
48926;BME280;39838;59.938;30.642;2023-01-28T11:58:54;100997.16;;;-3.32;73.32
48926;BME280;39838;59.938;30.642;2023-01-28T12:01:34;100987.25;;;-3.40;73.25
48926;BME280;39838;59.938;30.642;2023-01-28T12:04:22;100971.22;;;-3.52;73.55
48926;BME280;39838;59.938;30.642;2023-01-28T12:07:09;100956.91;;;-3.52;73.46
48926;BME280;39838;59.938;30.642;2023-01-28T12:09:45;100945.16;;;-3.50;73.83
48926;BME280;39838;59.938;30.642;2023-01-28T12:12:37;100969.47;;;-3.40;73.36
48926;BME280;39838;59.938;30.642;2023-01-28T12:15:28;100969.69;;;-3.50;73.52
48926;BME280;39838;59.938;30.642;2023-01-28T12:18:14;100970.34;;;-3.53;73.93
48926;BME280;39838;59.938;30.642;2023-01-28T12:20:48;100970.75;;;-3.60;73.53
48926;BME280;39838;59.938;30.642;2023-01-28T12:23:23;100969.19;;;-3.58;73.58
48926;BME280;39838;59.938;30.642;2023-01-28T12:26:03;100960.97;;;-3.54;73.78
48926;BME280;39838;59.938;30.642;2023-01-28T12:28:43;100960.09;;;-3.54;73.21
48926;BME280;39838;59.938;30.642;2023-01-28T12:31:37;100949.53;;;-3.61;73.84
48926;BME280;39838;59.938;30.642;2023-01-28T12:34:27;100918.41;;;-3.85;73.70
48926;BME280;39838;59.938;30.642;2023-01-28T12:37:02;100938.59;;;-3.73;73.46
48926;BME280;39838;59.938;30.642;2023-01-28T12:39:47;100931.97;;;-3.71;73.38
48926;BME280;39838;59.938;30.642;2023-01-28T12:42:25;100924.84;;;-3.63;73.58
48926;BME280;39838;59.938;30.642;2023-01-28T12:45:02;100923.47;;;-3.58;73.08
48926;BME280;39838;59.938;30.642;2023-01-28T12:47:38;100912.72;;;-3.67;72.62
48926;BME280;39838;59.938;30.642;2023-01-28T12:50:13;100917.00;;;-3.66;73.07
48926;BME280;39838;59.938;30.642;2023-01-28T12:52:44;100918.88;;;-3.64;73.16
48926;BME280;39838;59.938;30.642;2023-01-28T12:55:17;100910.88;;;-3.57;73.83
48926;BME280;39838;59.938;30.642;2023-01-28T12:57:46;100916.34;;;-3.50;73.10
48926;BME280;39838;59.938;30.642;2023-01-28T13:00:22;100906.25;;;-3.49;73.14
48926;BME280;39838;59.938;30.642;2023-01-28T13:03:08;100913.09;;;-3.61;72.74
48926;BME280;39838;59.938;30.642;2023-01-28T13:05:40;100905.00;;;-3.69;72.89
48926;BME280;39838;59.938;30.642;2023-01-28T13:08:14;100908.91;;;-3.74;73.43